Time;durP1;ratioP1;P1;durP2;ratioP2;P2;SDS_P1;SDS_P2;PMS_P1;PMS_P2;Temp;Humidity;BMP_temperature;BMP_pressure;BME280_temperature;BME280_humidity;BME280_pressure;Samples;Min_cycle;Max_cycle;Signal;HPM_P1;HPM_P2
2022/12/06 00:02:20;;;;;;;12.50;4.43;;;;;;;;;;5079607;28;20102;-76
2022/12/06 00:04:46;;;;;;;10.50;4.10;;;;;;;;;;5098608;28;20058;-76
2022/12/06 00:07:13;;;;;;;12.50;4.60;;;;;;;;;;5088007;28;20056;-76
2022/12/06 00:09:39;;;;;;;9.88;4.13;;;;;;;;;;5089777;28;20049;-76
2022/12/06 00:12:05;;;;;;;10.57;4.18;;;;;;;;;;5088758;28;20476;-76
2022/12/06 00:14:32;;;;;;;11.13;4.63;;;;;;;;;;5094317;28;20060;-76
2022/12/06 00:16:58;;;;;;;11.90;4.35;;;;;;;;;;5088497;28;20080;-76
2022/12/06 00:19:25;;;;;;;11.20;4.30;;;;;;;;;;5086303;28;20179;-76
2022/12/06 00:21:51;;;;;;;10.82;4.50;;;;;;;;;;5092163;28;20068;-76
2022/12/06 00:24:19;;;;;;;10.68;4.22;;;;;;;;;;5088631;28;20509;-76
2022/12/06 00:26:46;;;;;;;15.80;5.00;;;;;;;;;;5092857;28;20535;-76
2022/12/06 00:29:14;;;;;;;11.35;4.20;;;;;;;;;;5107650;28;20565;-76
2022/12/06 00:31:40;;;;;;;17.25;4.50;;;;;;;;;;5094180;28;20513;-76
2022/12/06 00:34:06;;;;;;;12.70;4.75;;;;;;;;;;5091249;28;20139;-76
2022/12/06 00:36:35;;;;;;;13.32;4.78;;;;;;;;;;5089333;28;20044;-76
2022/12/06 00:39:03;;;;;;;11.30;4.43;;;;;;;;;;5100220;28;20565;-76
2022/12/06 00:41:29;;;;;;;13.52;4.65;;;;;;;;;;5095421;27;20070;-76
2022/12/06 00:43:56;;;;;;;15.20;4.90;;;;;;;;;;5094354;28;20139;-75
2022/12/06 00:46:24;;;;;;;15.13;4.93;;;;;;;;;;5108697;28;20059;-76
2022/12/06 00:48:51;;;;;;;11.73;3.90;;;;;;;;;;5078327;28;20057;-76
2022/12/06 00:51:18;;;;;;;12.73;4.82;;;;;;;;;;5102303;28;20521;-76
2022/12/06 00:53:45;;;;;;;14.18;4.43;;;;;;;;;;5098642;28;20518;-76
2022/12/06 00:56:11;;;;;;;15.70;4.60;;;;;;;;;;5108209;27;20048;-76
2022/12/06 00:58:38;;;;;;;15.45;4.70;;;;;;;;;;5106870;28;20058;-76
2022/12/06 01:01:15;;;;;;;15.02;4.63;;;;;;;;;;5098631;27;20052;-76
2022/12/06 01:03:42;;;;;;;13.25;4.30;;;;;;;;;;5099166;28;20048;-76
2022/12/06 01:06:10;;;;;;;13.13;4.50;;;;;;;;;;5087596;28;20063;-76
2022/12/06 01:08:37;;;;;;;11.30;4.35;;;;;;;;;;5083709;28;20050;-76
2022/12/06 01:11:04;;;;;;;15.25;4.45;;;;;;;;;;5097847;28;20060;-76
2022/12/06 01:13:31;;;;;;;12.15;4.10;;;;;;;;;;5091356;28;20052;-76
2022/12/06 01:16:03;;;;;;;12.15;4.47;;;;;;;;;;5106071;28;20571;-76
2022/12/06 01:18:29;;;;;;;14.40;4.55;;;;;;;;;;5092165;28;20527;-76
2022/12/06 01:20:55;;;;;;;13.10;4.63;;;;;;;;;;5098264;28;20044;-76
2022/12/06 01:23:21;;;;;;;12.40;4.18;;;;;;;;;;5095968;28;20048;-76
2022/12/06 01:25:51;;;;;;;12.50;4.25;;;;;;;;;;5095979;27;20062;-76
2022/12/06 01:28:17;;;;;;;25.85;4.95;;;;;;;;;;5095718;28;20052;-76
2022/12/06 01:30:43;;;;;;;13.98;5.00;;;;;;;;;;5092275;28;20052;-76
2022/12/06 01:33:10;;;;;;;14.77;4.78;;;;;;;;;;5100579;28;20136;-76
2022/12/06 01:35:40;;;;;;;11.07;4.20;;;;;;;;;;5092727;28;20053;-76
2022/12/06 01:38:07;;;;;;;14.40;3.90;;;;;;;;;;5097565;28;20075;-76
2022/12/06 01:40:37;;;;;;;12.80;4.25;;;;;;;;;;5106481;28;20056;-76
2022/12/06 01:43:03;;;;;;;13.85;4.32;;;;;;;;;;5071738;28;20052;-76
2022/12/06 01:45:30;;;;;;;12.82;3.83;;;;;;;;;;5096079;28;20599;-76
2022/12/06 01:47:56;;;;;;;16.35;4.50;;;;;;;;;;5092707;28;20049;-76
2022/12/06 01:50:25;;;;;;;11.50;4.10;;;;;;;;;;5096071;28;20442;-76
2022/12/06 01:52:53;;;;;;;14.10;4.10;;;;;;;;;;5097020;28;21117;-76
2022/12/06 01:55:21;;;;;;;11.65;4.50;;;;;;;;;;5106522;28;20059;-76
2022/12/06 01:57:50;;;;;;;11.95;3.88;;;;;;;;;;5096644;28;20170;-76
2022/12/06 02:00:16;;;;;;;16.00;4.10;;;;;;;;;;5096699;28;20536;-76
2022/12/06 02:02:43;;;;;;;14.95;4.55;;;;;;;;;;5070172;28;20053;-76
2022/12/06 02:05:10;;;;;;;11.93;3.95;;;;;;;;;;5104033;28;20056;-76
2022/12/06 02:07:37;;;;;;;11.10;4.28;;;;;;;;;;5092600;28;20503;-76
2022/12/06 02:10:04;;;;;;;10.23;4.20;;;;;;;;;;5105129;28;20117;-76
2022/12/06 02:12:30;;;;;;;12.95;4.15;;;;;;;;;;5077635;28;20060;-76
2022/12/06 02:14:58;;;;;;;12.52;4.35;;;;;;;;;;5099779;28;20502;-76
2022/12/06 02:17:28;;;;;;;9.52;3.47;;;;;;;;;;5099576;28;20052;-76
2022/12/06 02:19:54;;;;;;;11.27;4.20;;;;;;;;;;5095751;28;20099;-76
2022/12/06 02:22:40;;;;;;;10.07;3.42;;;;;;;;;;5106443;28;20736;-76
2022/12/06 02:25:08;;;;;;;14.38;3.58;;;;;;;;;;5093942;28;20635;-76
2022/12/06 02:27:47;;;;;;;13.27;4.28;;;;;;;;;;5102469;28;20056;-76
2022/12/06 02:30:33;;;;;;;10.43;3.60;;;;;;;;;;5094988;28;20418;-76
2022/12/06 02:33:04;;;;;;;13.02;3.95;;;;;;;;;;5095119;28;20438;-76
2022/12/06 02:35:30;;;;;;;;;;;;;;;;;;5103253;28;20473;-76
2022/12/06 02:38:03;;;;;;;12.60;3.80;;;;;;;;;;5095735;28;44009;-76
2022/12/06 02:40:40;;;;;;;16.25;4.00;;;;;;;;;;5093542;28;20482;-76
2022/12/06 02:43:33;;;;;;;10.32;3.40;;;;;;;;;;5087254;28;20049;-76
2022/12/06 02:46:01;;;;;;;13.23;3.42;;;;;;;;;;5083460;27;20082;-76
2022/12/06 02:48:27;;;;;;;16.00;4.28;;;;;;;;;;5088144;28;20076;-76
2022/12/06 02:50:57;;;;;;;10.20;3.72;;;;;;;;;;5100919;28;20558;-76
2022/12/06 02:53:24;;;;;;;12.88;3.90;;;;;;;;;;5088683;28;20052;-76
2022/12/06 02:55:51;;;;;;;13.75;3.53;;;;;;;;;;5093805;28;20048;-76
2022/12/06 02:58:18;;;;;;;10.02;3.67;;;;;;;;;;5090489;28;20139;-76
2022/12/06 03:00:45;;;;;;;13.85;3.85;;;;;;;;;;5085578;28;20056;-76
2022/12/06 03:03:35;;;;;;;11.98;3.35;;;;;;;;;;5092168;28;20083;-76
2022/12/06 03:06:01;;;;;;;11.40;3.30;;;;;;;;;;5095839;28;20058;-76
2022/12/06 03:08:33;;;;;;;8.77;3.20;;;;;;;;;;5088371;28;20048;-75
2022/12/06 03:11:01;;;;;;;14.07;3.55;;;;;;;;;;5086735;28;20522;-76
2022/12/06 03:13:38;;;;;;;9.98;3.67;;;;;;;;;;5090574;27;20057;-76
2022/12/06 03:16:08;;;;;;;11.07;3.17;;;;;;;;;;5093135;28;20067;-76
2022/12/06 03:18:39;;;;;;;10.88;3.47;;;;;;;;;;5086692;28;20135;-76
2022/12/06 03:21:05;;;;;;;;;;;;;;;;;;5092586;28;20063;-76
2022/12/06 03:23:34;;;;;;;12.50;3.20;;;;;;;;;;5100902;28;46857;-76
2022/12/06 03:26:01;;;;;;;7.57;2.40;;;;;;;;;;5097910;28;20450;-76
2022/12/06 03:28:28;;;;;;;10.23;2.88;;;;;;;;;;5086422;28;20057;-76
2022/12/06 03:30:58;;;;;;;10.30;2.80;;;;;;;;;;5074332;28;20312;-76
2022/12/06 03:33:25;;;;;;;9.90;2.75;;;;;;;;;;5093949;28;20499;-76
2022/12/06 03:35:52;;;;;;;9.95;3.00;;;;;;;;;;5104043;28;20056;-76
2022/12/06 03:38:28;;;;;;;9.32;3.17;;;;;;;;;;5089279;28;20970;-76
2022/12/06 03:40:55;;;;;;;8.50;2.80;;;;;;;;;;5094717;28;20056;-76
2022/12/06 03:43:22;;;;;;;10.93;2.72;;;;;;;;;;5101843;28;20048;-76
2022/12/06 03:45:52;;;;;;;9.35;2.67;;;;;;;;;;5085625;28;20126;-76
2022/12/06 03:48:21;;;;;;;12.65;2.70;;;;;;;;;;5085583;28;20446;-76
2022/12/06 03:50:57;;;;;;;9.65;2.58;;;;;;;;;;5101946;28;20143;-76
2022/12/06 03:53:24;;;;;;;8.20;2.88;;;;;;;;;;5073954;28;20696;-76
2022/12/06 03:55:50;;;;;;;10.60;3.00;;;;;;;;;;5086487;28;20059;-76
2022/12/06 03:58:16;;;;;;;9.38;2.60;;;;;;;;;;5092811;28;20051;-76
2022/12/06 04:00:43;;;;;;;8.05;3.08;;;;;;;;;;5075967;28;20059;-76
2022/12/06 04:03:09;;;;;;;8.05;2.72;;;;;;;;;;5101495;28;20055;-76
2022/12/06 04:05:36;;;;;;;12.50;3.13;;;;;;;;;;5097565;28;20102;-76
2022/12/06 04:08:03;;;;;;;13.88;2.75;;;;;;;;;;5102152;28;20052;-76
2022/12/06 04:10:30;;;;;;;5.97;2.30;;;;;;;;;;5098499;28;20052;-76
2022/12/06 04:12:59;;;;;;;8.40;2.67;;;;;;;;;;5097575;28;20513;-76
2022/12/06 04:15:27;;;;;;;9.38;2.97;;;;;;;;;;5089704;28;20518;-76
2022/12/06 04:23:41;;;;;;;7.47;2.60;;;;;;;;;;5095326;28;20514;-76
2022/12/06 04:26:09;;;;;;;7.35;2.50;;;;;;;;;;5105063;28;20491;-76
2022/12/06 04:39:36;;;;;;;7.93;2.30;;;;;;;;;;5092820;28;20059;-76
2022/12/06 04:44:47;;;;;;;7.30;2.20;;;;;;;;;;5086578;28;20059;-76
2022/12/06 04:47:14;;;;;;;8.68;2.33;;;;;;;;;;5086512;28;20084;-76
2022/12/06 04:49:40;;;;;;;8.48;2.45;;;;;;;;;;5099972;28;20056;-76
2022/12/06 04:52:07;;;;;;;8.73;2.42;;;;;;;;;;5088571;28;20289;-76
2022/12/06 04:54:34;;;;;;;10.15;2.30;;;;;;;;;;5085774;28;20150;-76
2022/12/06 04:57:01;;;;;;;8.45;1.95;;;;;;;;;;5100022;28;20052;-76
2022/12/06 04:59:27;;;;;;;8.57;2.28;;;;;;;;;;5084752;28;20052;-76
2022/12/06 05:01:54;;;;;;;8.90;2.20;;;;;;;;;;5102972;28;20054;-76
2022/12/06 05:04:21;;;;;;;7.68;2.20;;;;;;;;;;5102199;28;20056;-76
2022/12/06 05:06:47;;;;;;;6.90;1.75;;;;;;;;;;5085165;28;20095;-76
2022/12/06 05:09:14;;;;;;;5.53;1.92;;;;;;;;;;5084051;28;20063;-76
2022/12/06 05:11:40;;;;;;;7.10;2.17;;;;;;;;;;5091953;28;20537;-76
2022/12/06 05:14:07;;;;;;;5.88;2.03;;;;;;;;;;5070800;28;20877;-76
2022/12/06 05:16:33;;;;;;;7.15;2.03;;;;;;;;;;5099533;28;20083;-76
2022/12/06 05:18:59;;;;;;;6.88;1.88;;;;;;;;;;5101331;28;20060;-76
2022/12/06 05:21:26;;;;;;;8.50;2.00;;;;;;;;;;5103355;28;20052;-77
2022/12/06 05:23:53;;;;;;;7.38;2.08;;;;;;;;;;5096142;28;20048;-76
2022/12/06 05:26:21;;;;;;;6.57;2.00;;;;;;;;;;5088213;28;20147;-76
2022/12/06 05:28:48;;;;;;;9.20;1.88;;;;;;;;;;5092265;28;20794;-77
2022/12/06 05:31:14;;;;;;;6.53;1.70;;;;;;;;;;5103338;28;20060;-76
2022/12/06 05:33:41;;;;;;;7.30;2.35;;;;;;;;;;5104360;28;20059;-76
2022/12/06 05:36:08;;;;;;;5.57;2.08;;;;;;;;;;5096616;28;20507;-77
2022/12/06 05:38:35;;;;;;;8.25;3.15;;;;;;;;;;5100385;28;20083;-76
2022/12/06 05:41:01;;;;;;;8.05;2.65;;;;;;;;;;5102199;28;20052;-76
2022/12/06 05:43:28;;;;;;;8.23;2.22;;;;;;;;;;5096159;28;20442;-76
2022/12/06 05:45:54;;;;;;;4.68;1.92;;;;;;;;;;5095347;28;20052;-76
2022/12/06 05:48:21;;;;;;;9.25;2.53;;;;;;;;;;5099455;28;20483;-77
2022/12/06 05:50:47;;;;;;;5.28;1.88;;;;;;;;;;5093351;28;20052;-77
2022/12/06 05:53:14;;;;;;;7.80;2.22;;;;;;;;;;5095994;28;20658;-77
2022/12/06 05:55:41;;;;;;;8.23;1.98;;;;;;;;;;5096128;28;20052;-77
2022/12/06 05:58:07;;;;;;;6.72;2.05;;;;;;;;;;5098077;28;20044;-77
2022/12/06 06:00:34;;;;;;;9.82;2.03;;;;;;;;;;5092740;27;20056;-75
2022/12/06 06:03:00;;;;;;;7.00;1.98;;;;;;;;;;5099804;27;20063;-75
2022/12/06 06:05:26;;;;;;;5.15;2.15;;;;;;;;;;5087551;28;20063;-77
2022/12/06 06:07:53;;;;;;;6.13;1.92;;;;;;;;;;5086934;28;20891;-75
2022/12/06 06:10:20;;;;;;;7.75;2.10;;;;;;;;;;5078948;28;20052;-77
2022/12/06 06:12:46;;;;;;;7.05;2.08;;;;;;;;;;5090886;28;20142;-75
2022/12/06 06:15:13;;;;;;;8.13;2.10;;;;;;;;;;5096121;28;20055;-75
2022/12/06 06:17:40;;;;;;;6.93;2.08;;;;;;;;;;5089600;28;20123;-75
2022/12/06 06:20:06;;;;;;;7.90;2.05;;;;;;;;;;5084132;28;20048;-75
2022/12/06 06:22:34;;;;;;;6.10;2.08;;;;;;;;;;5092449;28;20059;-75
2022/12/06 06:25:00;;;;;;;3.97;1.70;;;;;;;;;;5088967;28;20052;-75
2022/12/06 06:27:27;;;;;;;6.97;1.92;;;;;;;;;;5093391;28;20506;-75
2022/12/06 06:29:53;;;;;;;9.77;2.40;;;;;;;;;;5101482;28;20140;-75
2022/12/06 06:32:20;;;;;;;9.55;1.92;;;;;;;;;;5091991;28;20054;-76
2022/12/06 06:34:46;;;;;;;5.63;2.13;;;;;;;;;;5103171;28;20056;-75
2022/12/06 06:37:13;;;;;;;11.48;2.22;;;;;;;;;;5088153;28;20049;-75
2022/12/06 06:39:39;;;;;;;7.57;2.40;;;;;;;;;;5087893;28;20052;-75
2022/12/06 06:42:05;;;;;;;7.88;2.28;;;;;;;;;;5093456;28;20122;-75
2022/12/06 06:44:31;;;;;;;6.97;2.38;;;;;;;;;;5078334;28;20601;-75
2022/12/06 06:46:58;;;;;;;6.22;2.25;;;;;;;;;;5094709;28;20056;-75
2022/12/06 06:49:24;;;;;;;8.80;2.38;;;;;;;;;;5096988;28;20056;-75
2022/12/06 06:51:50;;;;;;;7.28;2.63;;;;;;;;;;5090858;28;20059;-75
2022/12/06 06:54:17;;;;;;;6.65;2.75;;;;;;;;;;5094906;28;20143;-75
2022/12/06 06:56:44;;;;;;;7.72;2.30;;;;;;;;;;5076545;28;20060;-75
2022/12/06 06:59:10;;;;;;;11.98;2.42;;;;;;;;;;5101067;27;20430;-75
2022/12/06 07:01:37;;;;;;;8.75;2.40;;;;;;;;;;5071568;28;20584;-75
2022/12/06 07:04:03;;;;;;;6.28;2.20;;;;;;;;;;5095576;28;20056;-75
2022/12/06 07:06:30;;;;;;;8.05;2.60;;;;;;;;;;5105261;28;20151;-75
2022/12/06 07:08:56;;;;;;;7.95;2.25;;;;;;;;;;5103025;28;20120;-75
2022/12/06 07:11:22;;;;;;;6.95;2.65;;;;;;;;;;5106603;28;20056;-75
2022/12/06 07:13:49;;;;;;;8.98;3.53;;;;;;;;;;5087636;28;20591;-75
2022/12/06 07:16:18;;;;;;;7.63;2.63;;;;;;;;;;5102530;28;20064;-75
2022/12/06 07:18:46;;;;;;;7.82;2.97;;;;;;;;;;5108158;27;20052;-75
2022/12/06 07:21:14;;;;;;;8.57;3.10;;;;;;;;;;5087740;28;20710;-75
2022/12/06 07:23:40;;;;;;;8.02;3.03;;;;;;;;;;5103553;28;20048;-75
2022/12/06 07:26:09;;;;;;;11.50;3.22;;;;;;;;;;5079450;28;20316;-75
2022/12/06 07:28:36;;;;;;;7.90;2.53;;;;;;;;;;5108232;28;20056;-75
2022/12/06 07:31:23;;;;;;;7.03;2.90;;;;;;;;;;5085750;28;20451;-75
2022/12/06 07:33:51;;;;;;;7.00;2.60;;;;;;;;;;5098423;28;20059;-75
2022/12/06 07:36:17;;;;;;;7.05;2.80;;;;;;;;;;5079211;28;20615;-76
2022/12/06 07:38:48;;;;;;;7.15;3.10;;;;;;;;;;5091657;28;20477;-75
2022/12/06 07:46:46;;;;;;;9.27;2.70;;;;;;;;;;5101796;28;20056;-76
2022/12/06 07:49:14;;;;;;;7.63;2.80;;;;;;;;;;5103902;28;20056;-76
2022/12/06 07:51:41;;;;;;;7.07;3.03;;;;;;;;;;5087122;28;20049;-75
2022/12/06 07:54:07;;;;;;;7.68;2.45;;;;;;;;;;5092375;28;20498;-75
2022/12/06 07:56:33;;;;;;;5.78;2.60;;;;;;;;;;5098281;28;20200;-76
2022/12/06 07:59:00;;;;;;;6.15;2.60;;;;;;;;;;5092661;27;20526;-75
2022/12/06 08:01:26;;;;;;;8.70;2.60;;;;;;;;;;5103220;28;20225;-75
2022/12/06 08:03:55;;;;;;;6.63;2.50;;;;;;;;;;5105067;28;20082;-76
2022/12/06 08:06:22;;;;;;;9.07;3.22;;;;;;;;;;5105412;28;20063;-76
2022/12/06 08:08:48;;;;;;;7.50;2.72;;;;;;;;;;5102579;28;20132;-76
2022/12/06 08:11:14;;;;;;;8.15;2.72;;;;;;;;;;5086814;28;20087;-75
2022/12/06 08:13:41;;;;;;;6.25;2.45;;;;;;;;;;5087482;28;20400;-76
2022/12/06 08:16:08;;;;;;;7.20;2.97;;;;;;;;;;5105018;28;20056;-76
2022/12/06 08:18:36;;;;;;;7.00;2.50;;;;;;;;;;5095503;28;20061;-76
2022/12/06 08:21:02;;;;;;;6.70;2.30;;;;;;;;;;5107109;28;20056;-76
2022/12/06 08:23:28;;;;;;;8.23;2.55;;;;;;;;;;5093493;28;20049;-76
2022/12/06 08:25:59;;;;;;;;;;;;;;;;;;5101779;28;20058;-76
2022/12/06 08:28:26;;;;;;;6.18;2.15;;;;;;;;;;5067862;28;49039;-76
2022/12/06 08:30:53;;;;;;;7.03;2.40;;;;;;;;;;5088513;28;20052;-76
2022/12/06 08:33:27;;;;;;;6.85;2.45;;;;;;;;;;5089905;28;20975;-76
2022/12/06 08:35:54;;;;;;;5.20;2.58;;;;;;;;;;5098626;27;20051;-75
2022/12/06 08:38:20;;;;;;;9.45;2.83;;;;;;;;;;5098832;27;20626;-76
2022/12/06 08:40:46;;;;;;;7.85;2.60;;;;;;;;;;5092100;27;20048;-75
2022/12/06 08:43:13;;;;;;;7.28;2.50;;;;;;;;;;5097375;28;20052;-75
2022/12/06 08:45:39;;;;;;;6.70;2.90;;;;;;;;;;5089594;28;20535;-75
2022/12/06 08:48:05;;;;;;;6.95;2.53;;;;;;;;;;5106065;28;20090;-75
2022/12/06 08:50:32;;;;;;;8.55;2.80;;;;;;;;;;5096991;28;20566;-75
2022/12/06 08:52:58;;;;;;;10.45;3.00;;;;;;;;;;5103418;28;20059;-76
2022/12/06 08:55:24;;;;;;;8.45;3.08;;;;;;;;;;5089416;28;20057;-76
2022/12/06 08:57:51;;;;;;;12.32;3.45;;;;;;;;;;5094948;28;20053;-76
2022/12/06 09:00:17;;;;;;;8.25;2.83;;;;;;;;;;5099698;27;20513;-76
2022/12/06 09:02:44;;;;;;;11.55;2.90;;;;;;;;;;5105500;27;20060;-76
2022/12/06 09:05:10;;;;;;;7.03;2.90;;;;;;;;;;5090253;28;20072;-77
2022/12/06 09:07:36;;;;;;;9.23;3.15;;;;;;;;;;5088059;27;20057;-76
2022/12/06 09:10:04;;;;;;;8.27;2.97;;;;;;;;;;5089069;28;20512;-76
2022/12/06 09:12:30;;;;;;;8.40;3.72;;;;;;;;;;5103604;27;20062;-76
2022/12/06 09:14:57;;;;;;;7.43;2.95;;;;;;;;;;5093730;28;20058;-76
2022/12/06 09:17:23;;;;;;;7.63;2.75;;;;;;;;;;5077917;28;20049;-76
2022/12/06 09:19:49;;;;;;;7.85;3.10;;;;;;;;;;5095237;28;20351;-76
2022/12/06 09:22:16;;;;;;;10.15;3.30;;;;;;;;;;5073516;28;20060;-76
2022/12/06 09:24:42;;;;;;;8.48;3.28;;;;;;;;;;5093204;28;20054;-76
2022/12/06 09:27:08;;;;;;;10.07;4.00;;;;;;;;;;5097093;27;20052;-76
2022/12/06 09:29:36;;;;;;;8.23;3.83;;;;;;;;;;5089737;28;20052;-76
2022/12/06 09:32:06;;;;;;;9.10;3.58;;;;;;;;;;5091777;28;20057;-76
2022/12/06 09:34:32;;;;;;;8.77;3.15;;;;;;;;;;5090283;28;20060;-76
2022/12/06 09:37:10;;;;;;;7.95;2.75;;;;;;;;;;5101805;27;20053;-76
2022/12/06 09:39:40;;;;;;;8.65;2.53;;;;;;;;;;5070929;28;20048;-76
2022/12/06 09:42:32;;;;;;;7.10;2.60;;;;;;;;;;5093037;28;20635;-76
2022/12/06 09:45:11;;;;;;;6.28;2.28;;;;;;;;;;5063205;28;20049;-76
2022/12/06 09:47:40;;;;;;;6.00;2.17;;;;;;;;;;5089053;28;20229;-76
2022/12/06 09:50:12;;;;;;;7.20;2.28;;;;;;;;;;5092913;28;20166;-76
2022/12/06 09:52:39;;;;;;;7.60;2.35;;;;;;;;;;5103502;27;20093;-76
2022/12/06 09:55:24;;;;;;;6.25;2.03;;;;;;;;;;5103288;27;20056;-76
2022/12/06 09:58:01;;;;;;;6.05;2.00;;;;;;;;;;5088006;28;20056;-76
2022/12/06 10:00:32;;;;;;;5.97;2.42;;;;;;;;;;5092982;28;20063;-76
2022/12/06 10:03:18;;;;;;;7.85;2.50;;;;;;;;;;5093020;27;20060;-76
2022/12/06 10:05:54;;;;;;;5.85;1.70;;;;;;;;;;5093769;28;20134;-76
2022/12/06 10:08:23;;;;;;;5.10;1.83;;;;;;;;;;5094349;28;20135;-76
2022/12/06 10:11:17;;;;;;;8.35;1.73;;;;;;;;;;5086771;28;20554;-76
2022/12/06 10:13:52;;;;;;;12.43;1.70;;;;;;;;;;5091467;28;20492;-76
2022/12/06 10:16:25;;;;;;;5.25;1.13;;;;;;;;;;5098307;27;20442;-76
2022/12/06 10:18:54;;;;;;;5.32;1.40;;;;;;;;;;5093914;28;20048;-76
2022/12/06 10:21:44;;;;;;;5.45;1.25;;;;;;;;;;5100291;28;20483;-76
2022/12/06 10:24:29;;;;;;;10.60;1.92;;;;;;;;;;5091337;27;20516;-76
2022/12/06 10:26:59;;;;;;;5.13;1.38;;;;;;;;;;5088613;28;20060;-77
2022/12/06 10:29:32;;;;;;;5.72;1.38;;;;;;;;;;5097019;28;20602;-78
2022/12/06 10:32:02;;;;;;;5.93;1.70;;;;;;;;;;5089536;28;20139;-78
2022/12/06 10:34:47;;;;;;;6.55;1.42;;;;;;;;;;5090373;27;20055;-77
2022/12/06 10:37:33;;;;;;;4.68;1.60;;;;;;;;;;5091874;28;20567;-77
2022/12/06 10:40:18;;;;;;;4.90;1.35;;;;;;;;;;5090775;28;20053;-77
2022/12/06 10:42:52;;;;;;;4.88;1.75;;;;;;;;;;5089819;28;20107;-76
2022/12/06 10:48:32;;;;;;;7.18;1.80;;;;;;;;;;5088636;28;20161;-76
2022/12/06 10:51:05;;;;;;;8.40;2.38;;;;;;;;;;5085227;28;20057;-76
2022/12/06 10:53:33;;;;;;;4.78;1.92;;;;;;;;;;5091065;28;20053;-76
2022/12/06 10:56:04;;;;;;;6.70;1.88;;;;;;;;;;5089819;28;20057;-76
2022/12/06 10:58:31;;;;;;;;;;;;;;;;;;5093911;28;20053;-77
2022/12/06 11:00:57;;;;;;;6.80;2.78;;;;;;;;;;5086400;28;47955;-76
2022/12/06 11:03:23;;;;;;;7.93;3.10;;;;;;;;;;5075459;28;20086;-77
2022/12/06 11:05:56;;;;;;;8.10;3.20;;;;;;;;;;5090701;28;20048;-77
2022/12/06 11:08:41;;;;;;;6.53;2.92;;;;;;;;;;5064191;28;20113;-77
2022/12/06 11:11:15;;;;;;;8.38;2.90;;;;;;;;;;5085730;28;20538;-76
2022/12/06 11:13:57;;;;;;;9.27;2.78;;;;;;;;;;5087898;28;20049;-76
2022/12/06 11:16:30;;;;;;;7.55;2.95;;;;;;;;;;5090373;28;20056;-77
2022/12/06 11:19:01;;;;;;;6.70;2.70;;;;;;;;;;5094387;28;20060;-76
2022/12/06 11:21:40;;;;;;;5.50;1.95;;;;;;;;;;5093098;28;20057;-77
2022/12/06 11:24:22;;;;;;;7.07;2.50;;;;;;;;;;5083271;28;20063;-77
2022/12/06 11:26:54;;;;;;;8.75;2.40;;;;;;;;;;5090449;28;20071;-77
2022/12/06 11:29:21;;;;;;;6.68;2.40;;;;;;;;;;5093395;27;20521;-77
2022/12/06 11:31:52;;;;;;;5.32;2.75;;;;;;;;;;5075711;27;20056;-77
2022/12/06 11:34:18;;;;;;;;;;;;;;;;;;5093437;28;20059;-77
2022/12/06 11:36:45;;;;;;;8.98;2.10;;;;;;;;;;5086007;28;48334;-77
2022/12/06 11:39:13;;;;;;;7.95;2.20;;;;;;;;;;5086066;28;20048;-77
2022/12/06 11:41:41;;;;;;;11.30;3.38;;;;;;;;;;5091490;28;20090;-77
2022/12/06 11:44:12;;;;;;;7.07;2.58;;;;;;;;;;5093626;28;20087;-77
2022/12/06 11:46:38;;;;;;;7.35;2.90;;;;;;;;;;5085523;28;20140;-77
2022/12/06 11:49:20;;;;;;;6.72;2.28;;;;;;;;;;5091037;28;20110;-77
2022/12/06 11:51:46;;;;;;;8.52;2.65;;;;;;;;;;5094744;28;20068;-77
2022/12/06 11:54:21;;;;;;;7.45;2.83;;;;;;;;;;5090934;28;20056;-77
2022/12/06 11:56:48;;;;;;;6.70;2.80;;;;;;;;;;5092899;28;20056;-77
2022/12/06 11:59:19;;;;;;;5.45;2.45;;;;;;;;;;5090323;28;20147;-76
2022/12/06 12:01:49;;;;;;;7.82;3.10;;;;;;;;;;5097958;28;20147;-78
2022/12/06 12:04:24;;;;;;;7.97;2.72;;;;;;;;;;5087398;28;20527;-77
2022/12/06 12:06:54;;;;;;;7.03;2.55;;;;;;;;;;5092874;28;20051;-77
2022/12/06 12:09:21;;;;;;;6.93;2.80;;;;;;;;;;5094931;28;20063;-77
2022/12/06 12:12:00;;;;;;;6.88;2.90;;;;;;;;;;5091029;28;20637;-77
2022/12/06 12:14:31;;;;;;;11.23;3.08;;;;;;;;;;5089695;28;20059;-77
2022/12/06 12:16:59;;;;;;;10.45;2.92;;;;;;;;;;5086128;28;20056;-77
2022/12/06 12:19:29;;;;;;;7.78;3.17;;;;;;;;;;5072354;28;20110;-77
2022/12/06 12:21:56;;;;;;;8.73;3.28;;;;;;;;;;5090235;28;20048;-77
2022/12/06 12:24:42;;;;;;;8.07;3.03;;;;;;;;;;5089060;28;20052;-77
2022/12/06 12:27:41;;;;;;;8.93;3.60;;;;;;;;;;5088130;28;20430;-77
2022/12/06 12:30:14;;;;;;;5.97;2.65;;;;;;;;;;5069304;28;20056;-77
2022/12/06 12:32:41;;;;;;;7.13;2.92;;;;;;;;;;5088639;28;20054;-77
2022/12/06 12:35:33;;;;;;;7.45;3.22;;;;;;;;;;5089273;28;20536;-77
2022/12/06 12:38:02;;;;;;;10.38;3.45;;;;;;;;;;5084333;28;20616;-77
2022/12/06 12:40:32;;;;;;;7.68;2.95;;;;;;;;;;5087152;28;20079;-77
2022/12/06 12:43:07;;;;;;;8.30;2.55;;;;;;;;;;5071885;28;20442;-77
2022/12/06 12:45:33;;;;;;;7.55;3.10;;;;;;;;;;5088922;28;20599;-77
2022/12/06 12:48:00;;;;;;;8.50;2.42;;;;;;;;;;5095762;28;20071;-77
2022/12/06 12:50:29;;;;;;;11.40;6.28;;;;;;;;;;5092434;28;20063;-77
2022/12/06 12:52:55;;;;;;;10.73;2.72;;;;;;;;;;5088442;28;20048;-77
2022/12/06 12:55:24;;;;;;;6.30;2.40;;;;;;;;;;5087746;28;20521;-77
2022/12/06 12:57:52;;;;;;;6.88;2.20;;;;;;;;;;5093694;28;20114;-77
2022/12/06 13:00:21;;;;;;;6.90;2.53;;;;;;;;;;5086746;28;20115;-77
2022/12/06 13:02:58;;;;;;;7.20;2.38;;;;;;;;;;5074462;28;20048;-77
2022/12/06 13:05:26;;;;;;;5.97;2.33;;;;;;;;;;5087664;28;20067;-77
2022/12/06 13:08:06;;;;;;;7.72;2.50;;;;;;;;;;5085288;28;20056;-77
2022/12/06 13:10:35;;;;;;;4.97;2.30;;;;;;;;;;5087110;28;20057;-77
2022/12/06 13:13:03;;;;;;;7.10;2.53;;;;;;;;;;5091455;28;20055;-76
2022/12/06 13:15:35;;;;;;;4.93;2.03;;;;;;;;;;5088798;28;20149;-76
2022/12/06 13:18:21;;;;;;;8.73;2.38;;;;;;;;;;5086758;28;20130;-76
2022/12/06 13:20:51;;;;;;;5.35;2.30;;;;;;;;;;5072229;28;20122;-76
2022/12/06 13:23:19;;;;;;;6.22;2.28;;;;;;;;;;5087525;28;20060;-76
2022/12/06 13:25:51;;;;;;;4.65;2.00;;;;;;;;;;5088189;28;20051;-76
2022/12/06 13:28:20;;;;;;;8.80;2.47;;;;;;;;;;5085068;28;20123;-77
2022/12/06 13:30:50;;;;;;;9.20;3.20;;;;;;;;;;5102397;27;20056;-76
2022/12/06 13:33:19;;;;;;;8.27;2.92;;;;;;;;;;5083343;28;20418;-77
2022/12/06 13:35:58;;;;;;;5.35;2.50;;;;;;;;;;5089062;28;20060;-76
2022/12/06 13:38:30;;;;;;;5.95;2.83;;;;;;;;;;5094614;28;20137;-77
2022/12/06 13:41:00;;;;;;;7.18;2.22;;;;;;;;;;5089858;28;20052;-77
2022/12/06 13:43:27;;;;;;;5.45;2.10;;;;;;;;;;5088438;28;20057;-77
2022/12/06 13:45:54;;;;;;;5.85;2.10;;;;;;;;;;5070621;28;20059;-77
2022/12/06 13:48:24;;;;;;;7.45;2.40;;;;;;;;;;5089568;28;20064;-76
2022/12/06 13:50:53;;;;;;;8.23;2.78;;;;;;;;;;5106522;27;20095;-77
2022/12/06 13:53:21;;;;;;;5.82;2.08;;;;;;;;;;5093440;28;20055;-76
2022/12/06 13:56:11;;;;;;;6.30;1.90;;;;;;;;;;5089872;28;20059;-77
2022/12/06 13:58:38;;;;;;;4.47;2.33;;;;;;;;;;5087402;28;20053;-76
2022/12/06 14:01:24;;;;;;;6.47;2.40;;;;;;;;;;5087095;28;20076;-77
2022/12/06 14:03:54;;;;;;;4.95;1.63;;;;;;;;;;5089689;28;20048;-77
2022/12/06 14:06:39;;;;;;;5.75;1.73;;;;;;;;;;5090577;28;20063;-78
2022/12/06 14:09:07;;;;;;;6.57;1.92;;;;;;;;;;5089903;28;20048;-77
2022/12/06 14:11:34;;;;;;;6.20;1.90;;;;;;;;;;5099525;28;20140;-77
2022/12/06 14:14:12;;;;;;;5.60;1.75;;;;;;;;;;5094827;28;20098;-77
2022/12/06 14:16:39;;;;;;;5.15;1.58;;;;;;;;;;5093324;28;20588;-77
2022/12/06 14:19:17;;;;;;;4.75;1.30;;;;;;;;;;5095420;28;20058;-76
2022/12/06 14:21:56;;;;;;;4.43;1.30;;;;;;;;;;5087457;28;20067;-76
2022/12/06 14:24:27;;;;;;;5.43;1.60;;;;;;;;;;5085924;28;20052;-76
2022/12/06 14:26:54;;;;;;;5.97;1.50;;;;;;;;;;5077126;28;20396;-76
2022/12/06 14:29:22;;;;;;;5.68;1.70;;;;;;;;;;5080707;28;20147;-77
2022/12/06 14:31:49;;;;;;;5.85;1.60;;;;;;;;;;5084510;28;20056;-77
2022/12/06 14:34:42;;;;;;;5.55;1.70;;;;;;;;;;5094283;28;20055;-77
2022/12/06 14:37:17;;;;;;;6.38;1.58;;;;;;;;;;5070248;28;20052;-77
2022/12/06 14:39:49;;;;;;;6.13;1.92;;;;;;;;;;5088173;28;20087;-77
2022/12/06 14:45:11;;;;;;;5.07;2.05;;;;;;;;;;5088465;28;20060;-77
2022/12/06 14:47:38;;;;;;;5.93;2.20;;;;;;;;;;5077519;28;20048;-76
2022/12/06 14:50:24;;;;;;;9.45;2.90;;;;;;;;;;5087393;28;20057;-76
2022/12/06 14:52:55;;;;;;;6.13;2.20;;;;;;;;;;5085353;28;20075;-77
2022/12/06 14:55:24;;;;;;;7.65;2.67;;;;;;;;;;5091357;28;20052;-77
2022/12/06 14:57:54;;;;;;;6.97;2.38;;;;;;;;;;5069013;28;20048;-77
2022/12/06 15:00:22;;;;;;;12.40;2.55;;;;;;;;;;5098854;28;20048;-77
2022/12/06 15:03:02;;;;;;;6.10;2.67;;;;;;;;;;5096937;28;20091;-77
2022/12/06 15:05:30;;;;;;;5.40;2.55;;;;;;;;;;5083008;28;20588;-77
2022/12/06 15:07:56;;;;;;;6.47;2.63;;;;;;;;;;5096675;28;20343;-77
2022/12/06 15:10:36;;;;;;;6.82;2.35;;;;;;;;;;5087471;28;20152;-76
2022/12/06 15:13:13;;;;;;;5.63;2.47;;;;;;;;;;5091573;28;20319;-77
2022/12/06 15:15:41;;;;;;;8.05;2.67;;;;;;;;;;5101265;28;20048;-76
2022/12/06 15:18:19;;;;;;;9.90;2.67;;;;;;;;;;5089489;28;20135;-76
2022/12/06 15:20:47;;;;;;;5.93;2.38;;;;;;;;;;5069519;28;20059;-76
2022/12/06 15:23:17;;;;;;;6.90;2.38;;;;;;;;;;5093974;28;20277;-77
2022/12/06 15:25:43;;;;;;;5.93;2.37;;;;;;;;;;5103973;27;20452;-77
2022/12/06 15:28:10;;;;;;;7.22;3.00;;;;;;;;;;5086988;27;20055;-77